Tuffy II — WDC3266 — position and weather

sailwx.info

Track history (hours):
 
Tides and Currents Weather Stations Pressure Air Temp Water Temp Dewpoint Dewpoint Depression Visibility Wind Speed Wind Dir Waves Ship Positions

Tuffy II

Owner: Seaway Co. of Catalina, Wilmington, CA. More information available from US FCC via Universal Licensing System and Coast Guard Vessel Documentation Center.

Last reported at 2018-Jun-18 23:10 UTC. Time now 2018-Jun-19 01:05 UTC.
Position N 33°46' W 118°13'.

; draft 2.2 m.

Type: Tug. MMSI: 367004930.

Date/timePositionNaut miles runAvg speedWind from/ knotsBaromVisibWave heightAir tempDewpointWater temp
2018-Jun-18 23:10N 33°46' W 118°13'0 0.1
2018-Jun-18 23:01N 33°46' W 118°13'3 5.9
2018-Jun-18 22:30N 33°44' W 118°11'4 8.5
2018-Jun-18 22:00N 33°41' W 118°07'4 8.3
2018-Jun-18 21:30N 33°39' W 118°03'4 8.4
2018-Jun-18 21:00N 33°36' W 117°59'13 8.5
2018-Jun-18 19:28N 33°30' W 117°45'9 4.4
2018-Jun-18 17:29N 33°34' W 117°55'4 9.2
2018-Jun-18 17:00N 33°37' W 117°59'4 9.1
2018-Jun-18 16:31N 33°40' W 118°03'5 9.1
2018-Jun-18 16:00N 33°43' W 118°06'1 2.1
2018-Jun-18 15:30N 33°44' W 118°06'1 1.4
2018-Jun-18 15:01N 33°44' W 118°06'2 3.2
2018-Jun-18 14:30N 33°44' W 118°08'3 5.7
2018-Jun-18 14:00N 33°44' W 118°11'  
2018-Jun-10 19:56N 33°46' W 118°13'1 2.1
2018-Jun-10 19:31N 33°45' W 118°13'3 5.7
2018-Jun-10 18:58N 33°44' W 118°10'3 6.8
2018-Jun-10 18:30N 33°44' W 118°06'2 3.5
2018-Jun-10 18:00N 33°42' W 118°07'4 7.1
2018-Jun-10 17:30N 33°40' W 118°11'4 7.6
2018-Jun-10 16:55N 33°38' W 118°15'0 0.5
2018-Jun-10 16:07N 33°38' W 118°16'1 4.8
2018-Jun-10 16:00N 33°38' W 118°15'2 5.0
2018-Jun-10 15:30N 33°39' W 118°12'3 5.4
2018-Jun-10 14:59N 33°41' W 118°10'3 5.6
2018-Jun-10 14:29N 33°43' W 118°07'2 2.3
2018-Jun-10 13:30N 33°44' W 118°09'4 7.2
2018-Jun-10 13:00N 33°45' W 118°13'1 1.7
2018-Jun-10 12:30N 33°46' W 118°13'  
Track history (hours):
 
Tides and Currents Weather Stations Pressure Air Temp Water Temp Dewpoint Dewpoint Depression Visibility Wind Speed Wind Dir Waves Ship Positions

Tuffy II

Owner: Seaway Co. of Catalina, Wilmington, CA. More information available from US FCC via Universal Licensing System and Coast Guard Vessel Documentation Center.

Last reported at 2018-Jun-18 23:10 UTC. Time now 2018-Jun-19 01:05 UTC.
Position N 33°46' W 118°13'.

; draft 2.2 m.

Type: Tug. MMSI: 367004930.

Date/timePositionNaut miles runAvg speedWind from/ knotsBaromVisibWave heightAir tempDewpointWater temp
2018-Jun-18 23:10N 33°46' W 118°13'0 0.1
2018-Jun-18 23:01N 33°46' W 118°13'3 5.9
2018-Jun-18 22:30N 33°44' W 118°11'4 8.5
2018-Jun-18 22:00N 33°41' W 118°07'4 8.3
2018-Jun-18 21:30N 33°39' W 118°03'4 8.4
2018-Jun-18 21:00N 33°36' W 117°59'13 8.5
2018-Jun-18 19:28N 33°30' W 117°45'9 4.4
2018-Jun-18 17:29N 33°34' W 117°55'4 9.2
2018-Jun-18 17:00N 33°37' W 117°59'4 9.1
2018-Jun-18 16:31N 33°40' W 118°03'5 9.1
2018-Jun-18 16:00N 33°43' W 118°06'1 2.1
2018-Jun-18 15:30N 33°44' W 118°06'1 1.4
2018-Jun-18 15:01N 33°44' W 118°06'2 3.2
2018-Jun-18 14:30N 33°44' W 118°08'3 5.7
2018-Jun-18 14:00N 33°44' W 118°11'  
2018-Jun-10 19:56N 33°46' W 118°13'1 2.1
2018-Jun-10 19:31N 33°45' W 118°13'3 5.7
2018-Jun-10 18:58N 33°44' W 118°10'3 6.8
2018-Jun-10 18:30N 33°44' W 118°06'2 3.5
2018-Jun-10 18:00N 33°42' W 118°07'4 7.1
2018-Jun-10 17:30N 33°40' W 118°11'4 7.6
2018-Jun-10 16:55N 33°38' W 118°15'0 0.5
2018-Jun-10 16:07N 33°38' W 118°16'1 4.8
2018-Jun-10 16:00N 33°38' W 118°15'2 5.0
2018-Jun-10 15:30N 33°39' W 118°12'3 5.4
2018-Jun-10 14:59N 33°41' W 118°10'3 5.6
2018-Jun-10 14:29N 33°43' W 118°07'2 2.3
2018-Jun-10 13:30N 33°44' W 118°09'4 7.2
2018-Jun-10 13:00N 33°45' W 118°13'1 1.7
2018-Jun-10 12:30N 33°46' W 118°13'  

Dump ship's entire track history